Home > Products > Valid Products > MTR

000
SAUS45 KMSO 251754
MTRP69
METAR KP69 251752Z AUTO 00000KT 22/07 A3009 RMK AO1 SLP175 T02170067
10217 20089 58023





000
SAUS45 KMSO 251653
MTRP69
METAR KP69 251652Z AUTO 35003KT 18/07 A3012 RMK AO1 SLP188 T01780067





000
SAUS45 KMSO 251554
MTRP69
METAR KP69 251552Z AUTO 00000KT 14/07 A3014 RMK AO1 SLP198 T01440072





000
SAUS45 KMSO 251454
MTRP69
METAR KP69 251452Z AUTO 00000KT 12/08 A3016 RMK AO1 SLP205 T01170078
58001





000
SAUS45 KMSO 251354
MTRP69
METAR KP69 251352Z AUTO 00000KT 09/07 A3017 RMK AO1 SLP210 T00940072





000
SAUS45 KMSO 251254
MTRP69
METAR KP69 251252Z AUTO 32003KT 09/07 A3017 RMK AO1 SLP206 T00890067





000
SAUS45 KMSO 251154
MTRP69
METAR KP69 251152Z AUTO 00000KT 09/07 A3016 RMK AO1 SLP198 70001
T00940067 10144 20094 53004





000
SAUS45 KMSO 251054
MTRP69
METAR KP69 251052Z AUTO 35004KT 10/07 A3015 RMK AO1 SLP195 T01000072





000
SAUS45 KMSO 250954
MTRP69
METAR KP69 250952Z AUTO 34003KT 11/08 A3015 RMK AO1 SLP194 T01060078





000
SAUS45 KMSO 250854
MTRP69
METAR KP69 250852Z AUTO 32003KT 12/07 A3015 RMK AO1 SLP196 T01170072
52003





000
SAUS45 KMSO 250754
MTRP69
METAR KP69 250752Z AUTO 35003KT 12/08 A3014 RMK AO1 SLP195 T01220078
403000122





000
SAUS45 KMSO 250654
MTRP69
METAR KP69 250652Z AUTO 32004KT 13/08 A3015 RMK AO1 SLP196 T01330083





000
SAUS45 KMSO 250554
MTRP69
METAR KP69 250552Z AUTO 30003KT 14/08 A3014 RMK AO1 SLP196 T01440078
10289 20139 51020





000
SAUS45 KMSO 250454
MTRP69
METAR KP69 250452Z AUTO 35003KT 15/08 A3014 RMK AO1 SLP195 T01500083





000
SAUS45 KMSO 250354
MTRP69
METAR KP69 250352Z AUTO 00000KT 16/08 A3011 RMK AO1 SLP187 T01610083





000
SAUS45 KMSO 250254
MTRP69
METAR KP69 250252Z AUTO 00000KT 18/07 A3008 RMK AO1 SLP176 T01830072
53008





000
SAUS45 KMSO 250154
MTRP69
METAR KP69 250152Z AUTO 00000KT 20/08 A3006 RMK AO1 SLP169 T02000078





000
SAUS45 KMSO 250054
MTRP69
METAR KP69 250052Z AUTO 00000KT 23/06 A3006 RMK AO1 SLP164 T02280061





000
SAUS45 KMSO 242354
MTRP69
METAR KP69 242352Z AUTO 00000KT 28/05 A3006 RMK AO1 SLP156 T02780050
10300 20183 56022





000
SAUS45 KMSO 242254
MTRP69
METAR KP69 242252Z AUTO 29/04 A3007 RMK AO1 SLP158 T02890039





000
SAUS45 KMSO 242155
MTRP69
METAR KP69 242152Z AUTO 00000KT 29/04 A3009 RMK AO1 SLP166 T02890044





000
SAUS45 KMSO 242054
MTRP69
METAR KP69 242052Z AUTO VRB03KT 24/04 A3012 RMK AO1 SLP180 T02440044
58022





000
SAUS45 KMSO 241954
MTRP69
METAR KP69 241952Z AUTO 00000KT 23/06 A3015 RMK AO1 SLP188 T02330056





000
SAUS45 KMSO 241854
MTRP69
METAR KP69 241852Z AUTO VRB06KT 22/06 A3018 RMK AO1 SLP199 T02220061





000
SAUS45 KMSO 241754
MTRP69
METAR KP69 241752Z AUTO 00000KT 19/06 A3019 RMK AO1 SLP206 60001
T01890056 10189 20128 58005





000
SAUS45 KMSO 241654
MTRP69
METAR KP69 241652Z AUTO 00000KT 17/08 A3021 RMK AO1 SLP215 T01670078





000
SAUS45 KMSO 241554
MTRP69
METAR KP69 241552Z AUTO 00000KT 15/10 A3022 RMK AO1 SLP222 T01500100





000
SAUS45 KMSO 241454
MTRP69
METAR KP69 241452Z AUTO 00000KT 14/10 A3021 RMK AO1 SLP215 60001
T01390100 51035





000
SAUS45 KMSO 241354
MTRP69
METAR KP69 241352Z AUTO 13003KT 13/09 A3018 RMK AO1 SLP204 T01330089





000
SAUS45 KMSO 241254
MTRP69
METAR KP69 241252Z AUTO 00000KT 14/09 A3014 RMK AO1 SLP184 P0001
T01390094





000
SAUS45 KMSO 241153
MTRP69
METAR KP69 241152Z AUTO 00000KT 17/08 A3010 RMK AO1 SLP169 T01670078
10211 20167 53007





000
SAUS45 KMSO 241054
MTRP69
METAR KP69 241052Z AUTO 00000KT 18/11 A3007 RMK AO1 SLP156 T01780106





000
SAUS45 KMSO 240953
MTRP69
METAR KP69 240952Z AUTO 00000KT 18/10 A3007 RMK AO1 SLP152 T01830100





000
SAUS45 KMSO 240853
MTRP69
METAR KP69 240852Z AUTO 00000KT 19/10 A3008 RMK AO1 SLP155 T01890100
50001





000
SAUS45 KMSO 240754
MTRP69
METAR KP69 240752Z AUTO 00000KT 20/08 A3008 RMK AO1 SLP156 T02000078
403670178





000
SAUS45 KMSO 240654
MTRP69
METAR KP69 240652Z AUTO 12003KT 21/08 A3009 RMK AO1 SLP160 T02060078





000
SAUS45 KMSO 240554
MTRP69
METAR KP69 240552Z AUTO 12003KT 21/08 A3007 RMK AO1 SLP158 T02110083
10317 20206 51024





000
SAUS45 KMSO 240454
MTRP69
METAR KP69 240452Z AUTO 00000KT 21/09 A3007 RMK AO1 SLP157 T02110089





000
SAUS45 KMSO 240354
MTRP69
METAR KP69 240352Z AUTO 00000KT 21/12 A3004 RMK AO1 PRESRR SLP151
T02060122





000
SAUS45 KMSO 240254
MTRP69
METAR KP69 240252Z AUTO 00000KT 22/11 A3000 RMK AO1 SLP139 T02220111
53081





000
SAUS45 KMSO 240154
MTRP69
METAR KP69 240152Z AUTO VRB04KT 24/12 A2992 RMK AO1 SLP110 T02440122





000
SAUS45 KMSO 240054
MTRP69
METAR KP69 240052Z AUTO VRB06KT 32/12 A2980 RMK AO1 PRESRR SLP064
T03170117





000
SAUS45 KMSO 232354
MTRP69
METAR KP69 232352Z AUTO 00000KT 29/16 A2975 RMK AO1 SLP048 T02940156
10367 20283 55015





000
SAUS45 KMSO 232253
MTRP69
METAR KP69 232252Z AUTO 00000KT 33/09 A2975 RMK AO1 SLP044 T03280094





000
SAUS45 KMSO 232153
MTRP69
METAR KP69 232152Z AUTO 00000KT 37/18 A2976 RMK AO1 SLP046 T03670178





000
SAUS45 KMSO 232053
MTRP69
METAR KP69 232052Z AUTO 00000KT 34/17 A2980 RMK AO1 SLP058 T03440172
56039





000
SAUS45 KMSO 231954
MTRP69
METAR KP69 231952Z AUTO 00000KT 34/14 A2983 RMK AO1 SLP068 T03440144





000
SAUS45 KMSO 231854
MTRP69
METAR KP69 231852Z AUTO 00000KT 32/14 A2987 RMK AO1 SLP084 T03170144





000
SAUS45 KMSO 231754
MTRP69
METAR KP69 231752Z AUTO 35003KT 28/14 A2991 RMK AO1 SLP101 T02830144
10289 20178 56034





000
SAUS45 KMSO 231654
MTRP69
METAR KP69 231652Z AUTO 36004KT 25/15 A2995 RMK AO1 SLP115 T02500150





000
SAUS45 KMSO 231554
MTRP69
METAR KP69 231552Z AUTO 00000KT 22/15 A2998 RMK AO1 SLP129 T02220150





000
SAUS45 KMSO 231454
MTRP69
METAR KP69 231452Z AUTO 00000KT 19/14 A3002 RMK AO1 SLP142 T01940144
58015





000
SAUS45 KMSO 231354
MTRP69
METAR KP69 231352Z AUTO 35003KT 18/14 A3004 RMK AO1 SLP151 T01780144





000
SAUS45 KMSO 231254
MTRP69
METAR KP69 231252Z AUTO 00000KT 18/14 A3006 RMK AO1 SLP155 T01830144





000
SAUS45 KMSO 231154
MTRP69
METAR KP69 231152Z AUTO 00000KT 19/15 A3006 RMK AO1 SLP148 T01890150
10244 20189 58024





000
SAUS45 KMSO 231054
MTRP69
METAR KP69 231052Z AUTO 00000KT 19/16 A3012 RMK AO1 SLP166 T01940156





000
SAUS45 KMSO 230954
MTRP69
METAR KP69 230952Z AUTO 34004KT 20/14 A3012 RMK AO1 SLP168 T02000144





000
SAUS45 KMSO 230853
MTRP69
METAR KP69 230852Z AUTO 00000KT 21/15 A3014 RMK AO1 SLP173 T02110150
51035





000
SAUS45 KMSO 230754
MTRP69
METAR KP69 230752Z AUTO 16003KT 22/14 A3013 RMK AO1 PRESRR SLP172
T02220139 403890156





000
SAUS45 KMSO 230654
MTRP69
METAR KP69 230652Z AUTO 00000KT 23/14 A3006 RMK AO1 SLP152 T02280139





000
SAUS45 KMSO 230554
MTRP69
METAR KP69 230552Z AUTO VRB03KT 23/14 A3003 RMK AO1 SLP143 T02330144
10378 20228 51021





000
SAUS45 KMSO 230454
MTRP69
METAR KP69 230452Z AUTO 00000KT 23/15 A3001 RMK AO1 SLP136 T02330150





000
SAUS45 KMSO 230354
MTRP69
METAR KP69 230352Z AUTO 00000KT 24/15 A3001 RMK AO1 SLP138 T02440150





000
SAUS45 KMSO 230354
MTRP69
METAR KP69 230352Z AUTO 00000KT 24/15 A3001 RMK AO1 SLP138 T02440150





000
SAUS45 KMSO 230254
MTRP69
METAR KP69 230252Z AUTO 00000KT 26/16 A2997 RMK AO1 SLP126 T02610161
53007





000
SAUS45 KMSO 230153
MTRP69
METAR KP69 230152Z AUTO 00000KT 27/14 A2994 RMK AO1 SLP118 T02670144





000
SAUS45 KMSO 230054
MTRP69
METAR KP69 230052Z AUTO 00000KT 29/14 A2993 RMK AO1 SLP113 T02940139





000
SAUS45 KMSO 222354
MTRP69
METAR KP69 222352Z AUTO 08003KT 38/11 A2994 RMK AO1 SLP109 T03780106
10389 20256 56006





000
SAUS45 KMSO 222254
MTRP69
METAR KP69 222252Z AUTO 00000KT 37/10 A2995 RMK AO1 SLP110 T03720100





000
SAUS45 KMSO 222154
MTRP69
METAR KP69 222152Z AUTO VRB03KT 36/13 A2995 RMK AO1 SLP115 T03560128





000
SAUS45 KMSO 222054
MTRP69
METAR KP69 222052Z AUTO 00000KT 36/11 A2996 RMK AO1 SLP118 T03560111
56021





000
SAUS45 KMSO 221954
MTRP69
METAR KP69 221952Z AUTO 18005KT 33/13 A2998 RMK AO1 SLP125 T03330128





000
SAUS45 KMSO 221854
MTRP69
METAR KP69 221852Z AUTO 34003KT 28/13 A3001 RMK AO1 SLP137 T02830133





    US Dept of Commerce
    National Oceanic and Atmospheric Administration
    National Weather Service
    1325 East West Highway
    Silver Spring, MD 20910
    Page Author: NWS Internet Services Team
Disclaimer
Information Quality
Credits
Glossary
Privacy Policy
Freedom of Information Act (FOIA)
About Us
Career Opportunities